Terminal Aerodrome Forecast
Issued by NWS

Home | Current Version | Previous Version | Text Only | Print | Product List | Glossary On
Versions: 1 2 3 4 5 6 7 8 9 10 11 12 13 14
891
FTUS45 KABQ 251334 AAA
TAFLVS
TAF AMD
KLVS 251334Z 2514/2612 10006KT P6SM SKC
     FM251800 15009KT P6SM SKC
     FM252300 19012KT P6SM FEW090=

USA.gov is the U.S. government's official web portal to all federal, state and local government web resources and services.